createdAt,value
2023-03-01T00:01:04.609Z,48.81
2023-03-01T00:06:08.710Z,49.40
2023-03-01T00:11:16.309Z,49.24
2023-03-01T00:16:22.373Z,48.81
2023-03-01T00:21:26.312Z,48.44
2023-03-01T00:26:31.816Z,48.45
2023-03-01T00:31:35.633Z,48.48
2023-03-01T00:36:39.933Z,48.24
2023-03-01T00:41:45.600Z,48.34
2023-03-01T00:46:48.969Z,48.34
2023-03-01T00:51:52.562Z,48.94
2023-03-01T00:56:57.319Z,48.64
2023-03-01T01:02:01.008Z,49.19
2023-03-01T01:07:04.428Z,48.72
2023-03-01T01:12:10.048Z,49.11
2023-03-01T01:17:13.626Z,49.34
2023-03-01T01:22:17.202Z,48.81
2023-03-01T01:27:22.184Z,49.42
2023-03-01T01:32:27.073Z,49.58
2023-03-01T01:37:34.515Z,49.76
2023-03-01T01:42:39.369Z,49.38
2023-03-01T01:47:42.848Z,49.83
2023-03-01T01:52:47.701Z,49.87
2023-03-01T01:57:55.552Z,50.16
2023-03-01T02:03:02.405Z,49.49
2023-03-01T02:08:05.955Z,49.92
2023-03-01T02:13:11.292Z,49.88
2023-03-01T02:18:20.233Z,50.05
2023-03-01T02:23:24.441Z,50.11
2023-03-01T02:28:33.081Z,50.44
2023-03-01T02:33:38.791Z,50.73
2023-03-01T02:38:43.147Z,50.13
2023-03-01T02:43:48.504Z,50.86
2023-03-01T02:48:53.721Z,50.31
2023-03-01T02:54:10.415Z,50.38
2023-03-01T02:59:15.444Z,51.22
2023-03-01T03:04:22.189Z,51.58
2023-03-01T03:09:25.674Z,50.94
2023-03-01T03:14:30.608Z,51.51
2023-03-01T03:19:34.102Z,51.55
2023-03-01T03:24:39.257Z,51.00
2023-03-01T03:29:44.131Z,50.75
2023-03-01T03:34:47.616Z,50.97
2023-03-01T03:39:51.016Z,51.63
2023-03-01T03:44:55.761Z,51.96
2023-03-01T03:49:59.140Z,51.35
2023-03-01T03:55:02.558Z,51.83
2023-03-01T04:00:14.274Z,51.90
2023-03-01T04:05:19.569Z,52.06
2023-03-01T04:10:22.958Z,51.74
2023-03-01T04:15:29.133Z,51.74
2023-03-01T04:20:35.826Z,51.81
2023-03-01T04:25:40.554Z,51.31
2023-03-01T04:30:45.295Z,51.15
2023-03-01T04:35:50.591Z,51.53
2023-03-01T04:40:54.054Z,51.54
2023-03-01T04:46:04.026Z,51.05
2023-03-01T04:51:08.759Z,50.56
2023-03-01T04:56:12.148Z,50.49
2023-03-01T05:01:18.746Z,50.70
2023-03-01T05:06:23.177Z,50.06
2023-03-01T05:11:26.752Z,49.44
2023-03-01T05:16:34.879Z,49.29
2023-03-01T05:21:59.847Z,49.23
2023-03-01T05:27:04.493Z,48.66
2023-03-01T05:32:10.255Z,48.35
2023-03-01T05:37:13.864Z,47.82
2023-03-01T05:42:17.468Z,47.82
2023-03-01T05:47:22.330Z,46.41
2023-03-01T05:52:25.808Z,45.36
2023-03-01T05:57:31.156Z,45.32
2023-03-01T06:02:36.047Z,44.89
2023-03-01T06:07:39.997Z,44.70
2023-03-01T06:12:44.837Z,44.40
2023-03-01T06:17:49.734Z,43.39
2023-03-01T06:22:53.214Z,43.09
2023-03-01T06:27:57.134Z,42.62
2023-03-01T06:33:02.962Z,41.81
2023-03-01T06:38:07.467Z,40.33
2023-03-01T06:43:11.408Z,35.97
2023-03-01T06:48:16.196Z,29.07
2023-03-01T06:53:19.613Z,23.77
2023-03-01T06:58:23.097Z,21.01
2023-03-01T07:03:27.870Z,20.50
2023-03-01T07:08:31.083Z,24.48
2023-03-01T07:13:34.674Z,23.74
2023-03-01T07:18:39.640Z,24.90
2023-03-01T07:23:43.338Z,24.66
2023-03-01T07:28:46.722Z,23.63
2023-03-01T07:33:51.639Z,22.32
2023-03-01T07:38:56.938Z,23.22
2023-03-01T07:44:00.443Z,23.87
2023-03-01T07:49:07.091Z,25.62
2023-03-01T07:54:10.614Z,26.04
2023-03-01T07:59:14.046Z,26.83
2023-03-01T08:04:18.898Z,24.66
2023-03-01T08:09:21.974Z,22.99
2023-03-01T08:14:25.278Z,18.69
2023-03-01T08:19:30.197Z,18.24
2023-03-01T08:24:33.790Z,17.05
2023-03-01T08:29:37.539Z,18.80
2023-03-01T08:34:42.656Z,18.72
2023-03-01T08:39:46.161Z,17.71
2023-03-01T08:44:49.620Z,15.82
2023-03-01T08:49:54.402Z,15.01
2023-03-01T08:54:57.946Z,15.52
2023-03-01T09:00:01.406Z,16.56
2023-03-01T09:05:07.378Z,18.81
2023-03-01T09:10:12.373Z,20.35
2023-03-01T09:15:16.357Z,23.04
2023-03-01T09:20:21.205Z,24.18
2023-03-01T09:25:24.753Z,25.24
2023-03-01T09:30:28.256Z,26.77
2023-03-01T09:35:33.214Z,28.84
2023-03-01T09:40:36.470Z,30.35
2023-03-01T09:45:45.664Z,31.32
2023-03-01T09:50:51.335Z,31.34
2023-03-01T09:56:02.256Z,32.92
2023-03-01T10:01:21.908Z,31.76
2023-03-01T10:06:34.863Z,31.81
2023-03-01T10:11:41.435Z,31.61
2023-03-01T10:16:51.201Z,31.56
2023-03-01T10:21:56.574Z,31.47
2023-03-01T10:27:04.114Z,33.30
2023-03-01T10:32:08.403Z,33.61
2023-03-01T10:37:15.188Z,34.25
2023-03-01T10:42:25.897Z,34.67
2023-03-01T10:47:30.348Z,35.07
2023-03-01T10:52:38.852Z,35.77
2023-03-01T10:57:43.159Z,35.80
2023-03-01T11:02:50.174Z,36.60
2023-03-01T11:07:57.750Z,36.73
2023-03-01T11:13:16.734Z,36.51
2023-03-01T11:18:33.971Z,36.51
2023-03-01T11:23:44.163Z,36.00
2023-03-01T11:28:52.745Z,35.71
2023-03-01T11:34:02.197Z,35.38
2023-03-01T11:39:27.562Z,35.37
2023-03-01T11:44:35.334Z,35.84
2023-03-01T11:50:11.777Z,36.25
2023-03-01T11:55:39.126Z,35.98
2023-03-01T12:01:05.915Z,36.25
2023-03-01T12:06:36.573Z,35.83
2023-03-01T12:11:55.699Z,36.35
2023-03-01T12:17:26.772Z,36.81
2023-03-01T12:22:33.929Z,36.46
2023-03-01T12:27:56.160Z,36.93
2023-03-01T12:33:15.708Z,36.84
2023-03-01T12:38:36.339Z,37.36
2023-03-01T12:43:53.921Z,36.94
2023-03-01T12:49:07.119Z,38.34
2023-03-01T12:54:17.774Z,37.70
2023-03-01T12:59:29.170Z,38.46
2023-03-01T13:04:42.857Z,38.53
2023-03-01T13:09:54.397Z,38.80
2023-03-01T13:14:59.345Z,38.80
2023-03-01T13:20:05.295Z,39.05
2023-03-01T13:25:17.618Z,39.21
2023-03-01T13:30:44.814Z,39.51
2023-03-01T13:35:48.230Z,39.29
2023-03-01T13:41:02.553Z,39.14
2023-03-01T13:46:17.644Z,39.40
2023-03-01T13:51:24.296Z,39.57
2023-03-01T13:56:30.395Z,39.94
2023-03-01T14:01:37.755Z,39.94
2023-03-01T14:06:41.515Z,39.60
2023-03-01T14:12:06.137Z,40.56
2023-03-01T14:17:42.161Z,40.25
2023-03-01T14:22:46.713Z,40.98
2023-03-01T14:27:58.049Z,40.76
2023-03-01T14:33:05.190Z,41.55
2023-03-01T14:38:08.780Z,42.13
2023-03-01T14:43:14.672Z,42.18
2023-03-01T14:48:20.971Z,42.43
2023-03-01T14:53:26.823Z,42.35
2023-03-01T14:58:30.501Z,42.63
2023-03-01T15:03:38.398Z,42.69
2023-03-01T15:08:46.858Z,42.55
2023-03-01T15:13:50.757Z,42.80
2023-03-01T15:18:57.500Z,43.53
2023-03-01T15:24:20.828Z,44.44
2023-03-01T15:29:31.035Z,43.98
2023-03-01T15:34:39.219Z,43.94
2023-03-01T15:39:45.003Z,43.95
2023-03-01T15:44:48.561Z,44.13
2023-03-01T15:49:57.208Z,43.59
2023-03-01T15:55:03.641Z,43.98
2023-03-01T16:00:12.684Z,43.78
2023-03-01T16:05:23.364Z,43.72
2023-03-01T16:10:27.325Z,43.46
2023-03-01T16:15:33.339Z,43.61
2023-03-01T16:20:38.963Z,43.86
2023-03-01T16:25:42.616Z,44.21
2023-03-01T16:30:49.476Z,44.57
2023-03-01T16:35:54.707Z,44.78
2023-03-01T16:40:57.961Z,44.12
2023-03-01T16:46:01.360Z,44.72
2023-03-01T16:51:07.124Z,45.61
2023-03-01T16:56:13.032Z,45.38
2023-03-01T17:01:18.788Z,45.82
2023-03-01T17:06:25.918Z,46.21
2023-03-01T17:11:29.827Z,46.23
2023-03-01T17:16:33.762Z,45.87
2023-03-01T17:21:38.800Z,46.09
2023-03-01T17:26:42.657Z,46.74
2023-03-01T17:31:46.455Z,47.08
2023-03-01T17:36:52.482Z,47.66
2023-03-01T17:41:56.157Z,47.42
2023-03-01T17:46:59.832Z,48.08
2023-03-01T17:52:04.930Z,48.06
2023-03-01T17:57:08.314Z,48.42
2023-03-01T18:02:14.300Z,48.80
2023-03-01T18:07:19.309Z,48.70
2023-03-01T18:12:22.883Z,48.98
2023-03-01T18:17:27.096Z,49.15
2023-03-01T18:22:32.893Z,48.47
2023-03-01T18:27:37.151Z,49.69
2023-03-01T18:32:41.141Z,49.54
2023-03-01T18:37:45.904Z,49.36
2023-03-01T18:42:49.157Z,48.65
2023-03-01T18:47:52.716Z,48.74
2023-03-01T18:52:57.713Z,48.97
2023-03-01T18:58:01.087Z,49.17
2023-03-01T19:03:04.711Z,49.00
2023-03-01T19:08:09.523Z,48.92
2023-03-01T19:13:12.750Z,49.53
2023-03-01T19:18:16.292Z,48.95
2023-03-01T19:23:21.187Z,49.46
2023-03-01T19:28:24.281Z,48.55
2023-03-01T19:33:27.934Z,49.13
2023-03-01T19:38:33.213Z,49.59
2023-03-01T19:43:37.030Z,49.29
2023-03-01T19:48:41.202Z,49.89
2023-03-01T19:53:46.188Z,50.85
2023-03-01T19:58:50.704Z,50.77
2023-03-01T20:03:54.094Z,50.87
2023-03-01T20:09:02.371Z,51.66
2023-03-01T20:14:12.378Z,51.61
2023-03-01T20:19:15.895Z,51.88
2023-03-01T20:24:20.841Z,51.92
2023-03-01T20:29:24.381Z,52.22
2023-03-01T20:34:27.782Z,52.16
2023-03-01T20:39:32.734Z,52.83
2023-03-01T20:44:36.152Z,51.99
2023-03-01T20:49:39.709Z,53.13
2023-03-01T20:54:44.784Z,52.92
2023-03-01T20:59:48.249Z,52.19
2023-03-01T21:04:51.819Z,52.70
2023-03-01T21:09:56.952Z,53.58
2023-03-01T21:15:00.517Z,53.17
2023-03-01T21:20:04.743Z,53.29
2023-03-01T21:25:10.146Z,53.96
2023-03-01T21:30:14.706Z,53.70
2023-03-01T21:35:18.283Z,54.23
2023-03-01T21:40:23.050Z,53.72
2023-03-01T21:45:26.350Z,53.84
2023-03-01T21:50:29.816Z,53.88
2023-03-01T21:55:35.563Z,54.01
2023-03-01T22:00:40.002Z,54.46
2023-03-01T22:05:43.531Z,54.20
2023-03-01T22:10:48.288Z,54.80
2023-03-01T22:15:51.377Z,53.93
2023-03-01T22:20:55.408Z,54.33
2023-03-01T22:26:00.248Z,54.06
2023-03-01T22:31:04.409Z,54.53
2023-03-01T22:36:08.717Z,54.21
2023-03-01T22:41:13.903Z,54.90
2023-03-01T22:46:20.282Z,54.53
2023-03-01T22:51:26.551Z,54.59
2023-03-01T22:56:33.700Z,54.93
2023-03-01T23:01:38.424Z,55.10
2023-03-01T23:06:50.633Z,55.01
2023-03-01T23:11:56.612Z,54.98
2023-03-01T23:17:00.936Z,55.01
2023-03-01T23:22:05.045Z,55.43
2023-03-01T23:27:09.960Z,55.22
2023-03-01T23:32:13.610Z,55.66
2023-03-01T23:37:17.004Z,55.73
2023-03-01T23:42:21.813Z,55.62
2023-03-01T23:47:25.049Z,55.32
2023-03-01T23:52:28.418Z,55.29
2023-03-01T23:57:33.503Z,55.87
